Flight Track Log - Related Links

Times and Time Zones

All times are in EDT time to prevent confusion due to time zone crossing. See the CES5532 flight status page for this flight to view local times or setup timezone preferences in your user account.

Time Position Orientation Groundspeed Altitude Reporting Facility
EDT Latitude Longitude Course Direction KTS MPH feet Rate Location/Type
Wed 07:41:00 AM 29.7259 118.0174 64° Northeast  Level Estimated
Wed 07:42:00 AM 29.7625 118.1103 66° East  Level Estimated
Wed 07:43:00 AM 29.7991 118.2032 66° East  Level Estimated
Wed 07:44:00 AM 29.8357 118.2962 66° East  Level Estimated
Wed 07:45:00 AM 29.8721 118.3893 66° East  Level Estimated
Wed 07:46:00 AM 29.9085 118.4825 66° East  Level Estimated
Wed 07:47:00 AM 29.9449 118.5757 66° East  Level Estimated
Wed 07:48:00 AM 29.9811 118.6690 66° East  Level Estimated
Wed 07:49:00 AM 30.0173 118.7623 66° East  Level Estimated
Wed 07:50:00 AM 30.0535 118.8557 66° East  Level Estimated
Wed 07:51:00 AM 30.0896 118.9492 66° East  Level Estimated
Wed 07:52:00 AM 30.1256 119.0428 66° East  Level Estimated
Wed 07:53:00 AM 30.1615 119.1364 66° East  Level Estimated
Wed 07:54:00 AM 30.1974 119.2301 66° East  Level Estimated
Wed 07:55:00 AM 30.2332 119.3239 66° East  Level Estimated
Wed 07:56:00 AM 30.2689 119.4177 66° East  Level Estimated
Wed 07:57:00 AM 30.3046 119.5116 66° East  Level Estimated
Wed 07:58:00 AM 30.3402 119.6055 66° East  Level Estimated
Wed 07:59:00 AM 30.3758 119.6996 66° East  Level Estimated
Wed 08:00:00 AM 30.4112 119.7937 66° East  Level Estimated
Wed 08:01:00 AM 30.4467 119.8878 66° East  Level Estimated
Wed 08:02:00 AM 30.4820 119.9821 66° East  Level Estimated
Wed 08:03:00 AM 30.5173 120.0764 67° East  Level Estimated
Wed 08:04:00 AM 30.5525 120.1708 67° East  Level Estimated
Wed 08:05:00 AM 30.5876 120.2652 67° East  Level Estimated
Wed 08:06:00 AM 30.6227 120.3597 67° East  Level Estimated
Wed 08:07:00 AM 30.6577 120.4543 67° East  Level Estimated
Wed 08:08:00 AM 30.6926 120.5489 67° East  Level Estimated
Wed 08:09:00 AM 30.7275 120.6437 67° East  Level Estimated
Wed 08:10:00 AM 30.7623 120.7384 67° East  Level Estimated
Wed 08:11:00 AM 30.7970 120.8333 67° East  Level Estimated
Wed 08:12:00 AM 30.8316 120.9282 67° East  Level Estimated
Wed 08:13:00 AM 30.8662 121.0232 67° East  Level Estimated
Wed 08:13:16 AM 30.7170 121.8400 67° East 5,600  Level FlightAware ADS-B
Wed 08:13:36 AM 30.7370 121.8470 17° North 226 260 5,200 -1,371 Descending FlightAware ADS-B
Wed 08:13:51 AM 30.7590 121.8530 13° North 326 375 4,800 -1,167 Descending FlightAware ADS-B
Wed 08:14:12 AM 30.7790 121.8590 14° North 223 257 4,500 -1,080 Descending FlightAware ADS-B
Wed 08:14:41 AM 30.8130 121.8690 14° North 271 312 3,900 -378 Descending FlightAware ADS-B
Wed 08:15:39 AM 30.8780 121.8850 12° North 3,800 -73 Descending FlightAware ADS-B
Wed 08:16:03 AM 30.9070 121.8760 345° North 309 356 3,800 -136 Level FlightAware ADS-B
Wed 08:16:23 AM 30.9270 121.8690 343° North 241 277 3,700 -514 Descending FlightAware ADS-B
Wed 08:16:38 AM 30.9420 121.8630 341° North 229 264 3,500 -1,029 Descending FlightAware ADS-B
Wed 08:16:58 AM 30.9650 121.8540 341° North 164 189 3,100 -1,200 Descending FlightAware ADS-B
Wed 08:17:18 AM 30.9850 121.8470 343° North 192 221 2,700 -1,200 Descending FlightAware ADS-B
Wed 08:17:43 AM 31.0070 121.8390 343° North 198 228 2,200 -933 Descending FlightAware ADS-B
Wed 08:18:03 AM 31.0220 121.8330 341° North 192 221 2,000 -750 Descending FlightAware ADS-B
Wed 08:18:23 AM 31.0380 121.8270 342° North 165 190 1,700 -900 Descending FlightAware ADS-B
Wed 08:18:43 AM 31.0510 121.8220 342° North 115 132 1,400 -750 Descending FlightAware ADS-B
Wed 08:19:03 AM 31.0630 121.8180 344° North 104 120 1,200 -686 Descending FlightAware ADS-B
Wed 08:19:53 AM 31.0950 121.8060 342° North 135 155 600 -720 Descending FlightAware ADS-B
Wed 08:22:00 AM 31.1428 121.7924 346° North  Level Estimated
Wed 08:23:00 AM 31.1428 121.7924 221° Southwest  Level Estimated
Wed 08:24:00 AM 31.1428 121.7924 221° Southwest  Level Estimated
Wed 08:25:00 AM 31.1428 121.7924 221° Southwest  Level Estimated
Wed 08:26:00 AM 31.1428 121.7924 221° Southwest  Level Estimated
Wed 08:27:00 AM 31.1428 121.7924 221° Southwest  Level Estimated
Wed 08:28:00 AM 31.1428 121.7924 221° Southwest  Level Estimated
Wed 08:29:00 AM 31.1428 121.7924 221° Southwest  Level Estimated
Wed 08:30:00 AM 31.1428 121.7924 221° Southwest  Level Estimated
Wed 08:31:00 AM 31.1428 121.7924 221° Southwest  Level Estimated
Wed 08:32:00 AM 31.1428 121.7924 221° Southwest  Level Estimated
Wed 08:33:00 AM 31.1428 121.7924 221° Southwest  Level Estimated
Wed 08:34:00 AM 31.1428 121.7924 221° Southwest  Level Estimated
Wed 08:35:00 AM 31.1428 121.7924 221° Southwest  Level Estimated
Wed 08:36:00 AM 31.1428 121.7924 221° Southwest  Level Estimated
Wed 08:37:00 AM 31.1428 121.7924 221° Southwest  Level Estimated

Login

Don't have an account? Register now (free) for customized features, flight alerts, and more!